Time;durP1;ratioP1;P1;durP2;ratioP2;P2;SDS_P1;SDS_P2;PMS_P1;PMS_P2;Temp;Humidity;BMP_temperature;BMP_pressure;BME280_temperature;BME280_humidity;BME280_pressure;Samples;Min_cycle;Max_cycle;Signal;HPM_P1;HPM_P2
2021/04/09 00:00:56;;;;;;;7.22;4.10;;;1.60;99.90;;;;;;476011;249;27559;-72
2021/04/09 00:02:57;;;;;;;11.23;4.68;;;1.60;99.90;;;;;;476006;249;27468;-71
2021/04/09 00:04:59;;;;;;;6.50;4.70;;;1.50;99.90;;;;;;475925;249;28012;-71
2021/04/09 00:07:00;;;;;;;14.05;4.65;;;1.50;99.90;;;;;;475966;249;28026;-72
2021/04/09 00:09:01;;;;;;;7.70;4.53;;;1.50;99.90;;;;;;475969;249;28059;-72
2021/04/09 00:11:02;;;;;;;7.30;4.90;;;1.50;99.90;;;;;;475949;250;27547;-71
2021/04/09 00:13:05;;;;;;;6.78;3.95;;;1.50;99.90;;;;;;476008;244;27547;-72
2021/04/09 00:15:05;;;;;;;12.02;5.05;;;1.50;99.90;;;;;;475945;249;27460;-71
2021/04/09 00:17:06;;;;;;;5.43;4.05;;;1.50;99.90;;;;;;475984;249;27546;-72
2021/04/09 00:19:07;;;;;;;5.55;4.30;;;1.50;99.90;;;;;;476004;249;27530;-71
2021/04/09 00:21:09;;;;;;;7.18;4.25;;;1.60;99.90;;;;;;475980;249;27536;-72
2021/04/09 00:23:10;;;;;;;7.00;4.05;;;1.50;99.90;;;;;;476034;249;27552;-72
2021/04/09 00:25:11;;;;;;;5.57;4.35;;;1.50;99.90;;;;;;475989;249;27667;-71
2021/04/09 00:27:12;;;;;;;4.68;3.80;;;1.50;99.90;;;;;;476003;249;27567;-72
2021/04/09 00:29:14;;;;;;;8.23;3.90;;;1.50;99.90;;;;;;475979;249;27634;-72
2021/04/09 00:31:15;;;;;;;10.13;4.57;;;1.50;99.90;;;;;;475995;249;28073;-72
2021/04/09 00:33:16;;;;;;;5.45;4.15;;;1.50;99.90;;;;;;476028;249;28016;-72
2021/04/09 00:35:17;;;;;;;7.43;4.30;;;1.50;99.90;;;;;;476010;249;27991;-72
2021/04/09 00:37:19;;;;;;;6.20;4.10;;;1.50;99.90;;;;;;476003;249;27472;-72
2021/04/09 00:39:20;;;;;;;4.68;4.10;;;1.50;99.90;;;;;;476010;249;27551;-71
2021/04/09 00:41:21;;;;;;;5.97;4.55;;;1.50;99.90;;;;;;476029;249;27550;-72
2021/04/09 00:43:22;;;;;;;5.53;3.90;;;1.60;99.90;;;;;;476081;249;27543;-72
2021/04/09 00:45:24;;;;;;;6.22;4.43;;;1.60;99.90;;;;;;476132;249;27507;-71
2021/04/09 00:47:25;;;;;;;7.12;4.70;;;1.50;99.90;;;;;;476152;249;27473;-72
2021/04/09 00:49:26;;;;;;;4.80;4.15;;;1.50;99.90;;;;;;476223;249;27464;-73
2021/04/09 00:51:27;;;;;;;6.47;4.20;;;1.50;99.90;;;;;;476160;249;27432;-72
2021/04/09 00:53:29;;;;;;;5.47;4.32;;;1.60;99.90;;;;;;476084;250;27544;-73
2021/04/09 00:55:30;;;;;;;4.90;4.18;;;1.60;99.90;;;;;;476045;249;27404;-73
2021/04/09 00:57:31;;;;;;;5.32;3.90;;;1.60;99.90;;;;;;475998;250;28026;-72
2021/04/09 00:59:32;;;;;;;5.80;4.57;;;1.60;99.90;;;;;;476039;249;28643;-72
2021/04/09 01:01:34;;;;;;;7.50;4.85;;;1.70;99.90;;;;;;476062;249;28110;-72
2021/04/09 01:03:35;;;;;;;8.43;4.70;;;1.70;99.90;;;;;;476077;249;27961;-72
2021/04/09 01:05:36;;;;;;;6.82;4.57;;;1.70;99.90;;;;;;476050;249;27520;-72
2021/04/09 01:07:37;;;;;;;5.82;4.20;;;1.70;99.90;;;;;;476000;249;27528;-72
2021/04/09 01:09:39;;;;;;;6.03;4.78;;;1.70;99.90;;;;;;476026;249;27460;-72
2021/04/09 01:11:40;;;;;;;5.65;4.20;;;1.70;99.90;;;;;;476031;250;27493;-72
2021/04/09 01:13:43;;;;;;;5.87;4.20;;;1.80;99.90;;;;;;476059;249;27528;-72
2021/04/09 01:15:42;;;;;;;6.25;3.92;;;1.80;99.90;;;;;;475930;249;27473;-72
2021/04/09 01:17:44;;;;;;;5.90;4.43;;;1.80;99.90;;;;;;476020;249;27544;-72
2021/04/09 01:19:45;;;;;;;13.30;5.25;;;1.80;99.90;;;;;;476046;249;27471;-72
2021/04/09 01:21:46;;;;;;;7.78;4.37;;;1.90;99.90;;;;;;476039;249;28000;-71
2021/04/09 01:23:47;;;;;;;7.18;4.80;;;1.90;99.90;;;;;;475977;249;27954;-72
2021/04/09 01:25:49;;;;;;;7.87;4.65;;;1.90;99.90;;;;;;475955;249;28038;-72
2021/04/09 01:27:50;;;;;;;7.60;4.93;;;1.90;99.90;;;;;;475944;249;28009;-72
2021/04/09 01:29:51;;;;;;;5.72;4.50;;;1.90;99.90;;;;;;475954;249;27558;-72
2021/04/09 01:31:52;;;;;;;9.98;5.12;;;1.90;99.90;;;;;;475980;249;27459;-72
2021/04/09 01:33:54;;;;;;;6.90;4.75;;;1.80;99.90;;;;;;475970;249;27464;-72
2021/04/09 01:35:55;;;;;;;10.00;5.10;;;1.90;99.90;;;;;;476039;249;27460;-72
2021/04/09 01:37:56;;;;;;;6.50;4.40;;;1.90;99.90;;;;;;475997;249;27555;-72
2021/04/09 01:39:57;;;;;;;7.55;4.90;;;1.90;99.90;;;;;;476055;249;27459;-72
2021/04/09 01:41:59;;;;;;;13.73;4.95;;;1.90;99.90;;;;;;476041;249;27481;-72
2021/04/09 01:44:00;;;;;;;7.90;5.28;;;1.90;99.90;;;;;;476031;250;27462;-72
2021/04/09 01:46:01;;;;;;;5.87;4.65;;;1.90;99.90;;;;;;476040;249;27480;-72
2021/04/09 01:48:02;;;;;;;6.82;4.80;;;1.90;99.90;;;;;;476026;249;28585;-72
2021/04/09 01:50:04;;;;;;;6.82;4.90;;;1.90;99.90;;;;;;476053;249;27992;-72
2021/04/09 01:52:05;;;;;;;7.65;5.12;;;2.00;99.90;;;;;;476077;249;27945;-72
2021/04/09 01:54:06;;;;;;;7.57;4.60;;;2.00;99.90;;;;;;476055;249;27947;-72
2021/04/09 01:56:07;;;;;;;6.45;4.75;;;2.10;99.90;;;;;;476034;249;27531;-72
2021/04/09 01:58:09;;;;;;;7.12;4.95;;;2.10;99.90;;;;;;476070;249;27558;-71
2021/04/09 02:00:10;;;;;;;7.20;4.60;;;2.20;99.90;;;;;;476065;249;27519;-71
2021/04/09 02:02:11;;;;;;;6.45;4.18;;;2.20;99.90;;;;;;476140;249;27456;-73
2021/04/09 02:04:13;;;;;;;6.43;4.97;;;2.20;99.90;;;;;;476156;249;27425;-72
2021/04/09 02:06:14;;;;;;;7.43;5.03;;;2.20;99.90;;;;;;476184;249;27460;-72
2021/04/09 02:08:15;;;;;;;10.32;4.70;;;2.20;99.90;;;;;;476193;249;27489;-72
2021/04/09 02:10:16;;;;;;;6.40;4.37;;;2.20;99.90;;;;;;476188;249;27425;-72
2021/04/09 02:12:17;;;;;;;7.12;4.20;;;2.30;99.90;;;;;;476186;245;27554;-72
2021/04/09 02:14:19;;;;;;;9.02;4.60;;;2.20;99.90;;;;;;476007;249;27472;-72
2021/04/09 02:16:20;;;;;;;5.22;4.60;;;2.20;99.90;;;;;;476002;249;28019;-71
2021/04/09 02:18:21;;;;;;;8.90;4.70;;;2.20;99.90;;;;;;475998;249;28030;-71
2021/04/09 02:20:22;;;;;;;6.72;4.75;;;2.20;99.90;;;;;;475991;249;29137;-72
2021/04/09 02:22:24;;;;;;;6.50;4.25;;;2.20;99.90;;;;;;476019;249;29051;-72
2021/04/09 02:24:25;;;;;;;8.07;4.85;;;2.20;99.90;;;;;;476020;249;27582;-72
2021/04/09 02:26:26;;;;;;;6.62;4.80;;;2.20;99.90;;;;;;475987;249;27501;-72
2021/04/09 02:28:27;;;;;;;6.68;4.80;;;2.20;99.90;;;;;;476012;249;27547;-73
2021/04/09 02:30:29;;;;;;;8.00;4.90;;;2.20;99.90;;;;;;475999;249;27452;-72
2021/04/09 02:32:30;;;;;;;6.70;4.57;;;2.10;99.90;;;;;;476050;249;27448;-73
2021/04/09 02:34:31;;;;;;;11.00;5.30;;;2.10;99.90;;;;;;476030;249;27658;-72
2021/04/09 02:36:32;;;;;;;5.35;4.55;;;2.10;99.90;;;;;;475989;249;27562;-71
2021/04/09 02:38:34;;;;;;;6.35;4.70;;;2.10;99.90;;;;;;476000;249;27544;-72
2021/04/09 02:40:35;;;;;;;6.25;4.60;;;2.10;99.90;;;;;;476003;249;27456;-72
2021/04/09 02:42:36;;;;;;;6.95;4.47;;;2.10;99.90;;;;;;476027;249;28466;-72
2021/04/09 02:44:37;;;;;;;7.03;4.72;;;2.10;99.90;;;;;;476027;249;27966;-72
2021/04/09 02:46:39;;;;;;;10.90;5.10;;;2.10;99.90;;;;;;476022;249;27939;-72
2021/04/09 02:48:40;;;;;;;5.10;4.43;;;2.20;99.90;;;;;;476037;249;27946;-72
2021/04/09 02:50:41;;;;;;;7.32;5.28;;;2.20;99.90;;;;;;476046;249;27455;-72
2021/04/09 02:52:42;;;;;;;7.43;5.00;;;2.20;99.90;;;;;;476047;249;27463;-71
2021/04/09 02:54:44;;;;;;;6.85;4.97;;;2.20;99.90;;;;;;476025;249;27559;-72
2021/04/09 02:56:45;;;;;;;6.95;4.80;;;2.10;99.90;;;;;;475992;249;27460;-72
2021/04/09 02:58:46;;;;;;;5.60;4.55;;;2.10;99.90;;;;;;476005;249;27522;-72
2021/04/09 03:00:47;;;;;;;7.90;4.50;;;2.10;99.90;;;;;;476030;249;27539;-71
2021/04/09 03:02:49;;;;;;;8.45;4.95;;;2.10;99.90;;;;;;475996;249;27428;-72
2021/04/09 03:04:50;;;;;;;5.25;4.75;;;2.10;99.90;;;;;;476027;249;27624;-73
2021/04/09 03:06:51;;;;;;;9.38;5.70;;;2.10;99.90;;;;;;476141;250;27507;-72
2021/04/09 03:08:52;;;;;;;6.05;4.85;;;2.10;99.90;;;;;;476186;249;27418;-72
2021/04/09 03:10:54;;;;;;;6.07;5.20;;;2.10;99.90;;;;;;476175;249;27955;-72
2021/04/09 03:12:55;;;;;;;9.68;5.40;;;2.00;99.90;;;;;;476153;249;27951;-73
2021/04/09 03:14:56;;;;;;;7.07;5.32;;;2.00;99.90;;;;;;476154;249;28089;-72
2021/04/09 03:16:58;;;;;;;6.75;5.00;;;2.00;99.90;;;;;;476084;249;27440;-71
2021/04/09 03:18:59;;;;;;;7.95;4.70;;;2.00;99.90;;;;;;476069;249;27417;-71
2021/04/09 03:21:00;;;;;;;8.35;4.55;;;2.00;99.90;;;;;;476031;249;27632;-72
2021/04/09 03:23:01;;;;;;;6.47;4.55;;;2.10;99.90;;;;;;476030;249;27544;-71
2021/04/09 03:25:03;;;;;;;5.10;4.55;;;2.20;99.90;;;;;;475992;249;27473;-72
2021/04/09 03:27:04;;;;;;;6.47;4.60;;;2.20;99.90;;;;;;476000;249;27540;-72
2021/04/09 03:29:05;;;;;;;7.87;5.12;;;2.20;99.90;;;;;;476005;249;27951;-72
2021/04/09 03:31:06;;;;;;;7.62;4.35;;;2.30;99.90;;;;;;476028;249;28038;-73
2021/04/09 03:33:08;;;;;;;6.80;5.43;;;2.30;99.90;;;;;;476019;249;29775;-72
2021/04/09 03:35:09;;;;;;;14.52;5.72;;;2.30;99.90;;;;;;476003;250;27951;-71
2021/04/09 03:37:10;;;;;;;7.53;5.53;;;2.20;99.90;;;;;;476000;249;27472;-72
2021/04/09 03:39:11;;;;;;;6.75;5.00;;;2.20;99.90;;;;;;475961;249;27472;-72
2021/04/09 03:41:13;;;;;;;6.20;4.85;;;2.10;99.90;;;;;;475937;249;27582;-72
2021/04/09 03:43:14;;;;;;;9.50;5.00;;;2.00;99.90;;;;;;475906;250;27664;-73
2021/04/09 03:45:15;;;;;;;9.73;5.00;;;2.00;99.90;;;;;;476006;249;27456;-72
2021/04/09 03:47:16;;;;;;;11.40;4.75;;;1.90;99.90;;;;;;476035;249;27647;-71
2021/04/09 03:49:18;;;;;;;8.00;5.10;;;1.90;99.90;;;;;;475996;249;27548;-72
2021/04/09 03:51:19;;;;;;;10.05;4.60;;;1.90;99.90;;;;;;476026;249;27459;-74
2021/04/09 03:53:20;;;;;;;7.57;4.85;;;1.80;99.90;;;;;;475836;249;27889;-73
2021/04/09 03:55:21;;;;;;;8.43;4.45;;;1.80;99.90;;;;;;476000;249;27927;-72
2021/04/09 03:57:23;;;;;;;8.75;4.85;;;1.80;99.90;;;;;;475985;249;28064;-71
2021/04/09 03:59:24;;;;;;;6.32;4.85;;;1.80;99.90;;;;;;475979;249;27910;-72
2021/04/09 04:01:25;;;;;;;4.30;3.90;;;1.80;99.90;;;;;;476006;249;27868;-72
2021/04/09 04:03:26;;;;;;;9.15;4.90;;;1.80;99.90;;;;;;475981;249;27465;-72
2021/04/09 04:05:28;;;;;;;6.95;5.07;;;1.90;99.90;;;;;;475981;249;27567;-72
2021/04/09 04:07:29;;;;;;;5.37;4.25;;;1.90;99.90;;;;;;475995;249;27650;-72
2021/04/09 04:09:30;;;;;;;7.57;5.57;;;1.90;99.90;;;;;;475994;249;27502;-72
2021/04/09 04:11:31;;;;;;;7.03;4.82;;;1.80;99.90;;;;;;475996;249;27652;-72
2021/04/09 04:13:33;;;;;;;8.40;6.10;;;1.80;99.90;;;;;;475979;249;27463;-72
2021/04/09 04:15:34;;;;;;;9.02;5.30;;;1.80;99.90;;;;;;475962;249;27535;-72
2021/04/09 04:17:35;;;;;;;7.78;5.40;;;1.80;99.90;;;;;;475998;249;27564;-72
2021/04/09 04:19:36;;;;;;;10.70;5.00;;;1.80;99.90;;;;;;475998;249;27467;-72
2021/04/09 04:21:38;;;;;;;5.87;5.00;;;1.80;99.90;;;;;;476024;249;27991;-71
2021/04/09 04:23:39;;;;;;;8.15;5.37;;;1.90;99.90;;;;;;476028;249;28022;-72
2021/04/09 04:25:40;;;;;;;5.50;4.90;;;1.90;99.90;;;;;;476046;249;29023;-72
2021/04/09 04:27:41;;;;;;;5.55;4.50;;;2.00;99.90;;;;;;476166;249;28041;-72
2021/04/09 04:29:43;;;;;;;5.72;4.70;;;2.10;99.90;;;;;;476180;250;27538;-72
2021/04/09 04:31:44;;;;;;;5.50;4.85;;;2.10;99.90;;;;;;476154;249;27435;-72
2021/04/09 04:33:45;;;;;;;6.97;5.05;;;2.10;99.90;;;;;;476155;249;27651;-71
2021/04/09 04:35:46;;;;;;;11.98;5.70;;;2.10;99.90;;;;;;476109;249;27448;-72
2021/04/09 04:37:48;;;;;;;6.60;5.25;;;2.20;99.90;;;;;;476147;249;27531;-72
2021/04/09 04:39:49;;;;;;;10.55;5.10;;;2.20;99.90;;;;;;476133;244;27482;-74
2021/04/09 04:41:50;;;;;;;10.38;5.85;;;2.20;99.90;;;;;;476072;249;27439;-73
2021/04/09 04:43:51;;;;;;;7.93;4.93;;;2.20;99.90;;;;;;476060;249;27551;-73
2021/04/09 04:45:53;;;;;;;6.97;4.80;;;2.20;99.90;;;;;;476015;249;27459;-73
2021/04/09 04:47:54;;;;;;;8.45;4.80;;;2.20;99.90;;;;;;476063;249;27875;-72
2021/04/09 04:49:55;;;;;;;5.15;4.25;;;2.20;99.90;;;;;;476050;249;28070;-72
2021/04/09 04:51:56;;;;;;;6.22;4.65;;;2.30;99.90;;;;;;476046;249;29106;-72
2021/04/09 04:53:58;;;;;;;5.65;5.05;;;2.30;99.90;;;;;;476003;250;27559;-72
2021/04/09 04:55:59;;;;;;;6.43;4.37;;;2.30;99.90;;;;;;476003;249;27566;-72
2021/04/09 04:58:00;;;;;;;6.53;5.00;;;2.30;99.90;;;;;;476015;244;27581;-72
2021/04/09 05:00:01;;;;;;;8.07;5.20;;;2.40;99.90;;;;;;476005;249;27448;-72
2021/04/09 05:02:03;;;;;;;6.80;4.50;;;2.40;99.90;;;;;;476009;249;27600;-71
2021/04/09 05:04:04;;;;;;;6.00;4.70;;;2.40;99.90;;;;;;476015;249;27568;-73
2021/04/09 05:06:05;;;;;;;5.80;4.80;;;2.40;99.90;;;;;;475995;249;27555;-72
2021/04/09 05:08:06;;;;;;;6.40;5.03;;;2.40;99.90;;;;;;472045;244;27456;-72
2021/04/09 05:10:08;;;;;;;5.00;4.00;;;2.40;99.90;;;;;;474123;250;27593;-72
2021/04/09 05:12:09;;;;;;;6.85;4.70;;;2.50;99.90;;;;;;468520;253;27612;-72
2021/04/09 05:14:10;;;;;;;5.43;4.05;;;2.50;99.90;;;;;;468912;253;28026;-72
2021/04/09 05:16:11;;;;;;;6.30;4.82;;;2.50;99.90;;;;;;468935;253;28026;-72
2021/04/09 05:18:13;;;;;;;5.80;4.50;;;2.60;99.90;;;;;;468884;253;28003;-72
2021/04/09 05:20:14;;;;;;;7.22;5.28;;;2.70;99.90;;;;;;468936;253;28402;-72
2021/04/09 05:22:15;;;;;;;7.53;5.70;;;2.70;99.90;;;;;;468938;253;27546;-72
2021/04/09 05:24:16;;;;;;;7.18;4.57;;;2.70;99.90;;;;;;468897;253;27557;-72
2021/04/09 05:26:18;;;;;;;8.10;4.85;;;2.70;99.90;;;;;;468840;253;27636;-72
2021/04/09 05:28:19;;;;;;;10.02;6.10;;;2.80;99.90;;;;;;468598;253;27665;-72
2021/04/09 05:30:20;;;;;;;6.28;4.85;;;2.80;99.90;;;;;;468564;253;27552;-72
2021/04/09 05:32:21;;;;;;;8.05;4.75;;;2.80;99.90;;;;;;468606;253;27683;-73
2021/04/09 05:34:23;;;;;;;6.80;4.53;;;2.90;99.90;;;;;;468866;253;27607;-72
2021/04/09 05:36:24;;;;;;;9.77;4.87;;;2.90;99.90;;;;;;469416;253;27574;-72
2021/04/09 05:38:25;;;;;;;8.00;5.00;;;2.90;99.90;;;;;;469463;253;27591;-72
2021/04/09 05:40:26;;;;;;;4.90;4.18;;;3.00;99.90;;;;;;469413;253;27583;-75
2021/04/09 05:42:28;;;;;;;5.55;4.60;;;3.00;99.90;;;;;;469463;253;28097;-75
2021/04/09 05:44:30;;;;;;;4.87;4.10;;;3.10;99.90;;;;;;469455;253;28183;-75
2021/04/09 05:46:30;;;;;;;7.62;5.22;;;3.10;99.90;;;;;;469369;253;27979;-75
2021/04/09 05:48:31;;;;;;;7.68;4.50;;;3.20;99.90;;;;;;469479;253;28050;-75
2021/04/09 05:50:33;;;;;;;6.28;5.37;;;3.20;99.90;;;;;;469461;253;27528;-74
2021/04/09 05:52:34;;;;;;;7.78;4.65;;;3.20;99.90;;;;;;469268;253;27669;-75
2021/04/09 05:54:35;;;;;;;9.35;5.47;;;3.30;99.90;;;;;;469465;253;27570;-75
2021/04/09 05:56:36;;;;;;;8.13;5.95;;;3.30;99.90;;;;;;469441;253;27520;-74
2021/04/09 05:58:38;;;;;;;7.20;4.90;;;3.40;99.90;;;;;;469617;253;27663;-74
2021/04/09 06:00:39;;;;;;;7.80;5.70;;;3.40;99.90;;;;;;469602;253;27524;-74
2021/04/09 06:02:40;;;;;;;7.03;5.53;;;3.50;99.90;;;;;;469519;253;27575;-74
2021/04/09 06:04:41;;;;;;;9.82;5.05;;;3.60;99.90;;;;;;469528;253;27650;-74
2021/04/09 06:06:43;;;;;;;7.50;4.20;;;3.70;99.90;;;;;;469510;253;27530;-74
2021/04/09 06:08:44;;;;;;;5.03;4.12;;;3.80;99.90;;;;;;469436;253;28143;-75
2021/04/09 06:10:45;;;;;;;8.77;4.60;;;3.90;99.90;;;;;;469465;253;27979;-74
2021/04/09 06:12:46;;;;;;;7.78;4.40;;;4.00;99.90;;;;;;469439;253;28039;-75
2021/04/09 06:14:48;;;;;;;4.43;4.00;;;4.10;99.90;;;;;;469398;253;28798;-75
2021/04/09 06:16:49;;;;;;;5.50;4.15;;;4.10;99.90;;;;;;469440;253;27685;-74
2021/04/09 06:18:50;;;;;;;4.28;3.87;;;4.30;99.90;;;;;;469459;253;27656;-74
2021/04/09 06:20:51;;;;;;;6.68;4.10;;;4.30;99.90;;;;;;469427;253;27589;-74
2021/04/09 06:22:53;;;;;;;4.50;4.10;;;4.40;99.90;;;;;;469446;253;27570;-74
2021/04/09 06:24:54;;;;;;;5.28;3.70;;;4.50;99.90;;;;;;469418;253;27572;-75
2021/04/09 06:26:55;;;;;;;5.78;3.97;;;4.70;99.90;;;;;;469434;253;27560;-75
2021/04/09 06:28:56;;;;;;;4.93;3.55;;;4.70;99.90;;;;;;464177;249;27652;-76
2021/04/09 06:30:58;;;;;;;7.18;4.00;;;4.90;99.90;;;;;;468212;244;28030;-74
2021/04/09 06:32:59;;;;;;;4.60;3.50;;;5.00;99.90;;;;;;468348;253;28018;-75
2021/04/09 06:35:00;;;;;;;4.12;3.70;;;5.10;99.90;;;;;;468419;253;28036;-74
2021/04/09 06:37:01;;;;;;;4.53;3.75;;;5.20;99.90;;;;;;468297;253;27485;-75
2021/04/09 06:39:03;;;;;;;7.05;3.90;;;5.40;99.90;;;;;;468406;253;27557;-74
2021/04/09 06:41:04;;;;;;;7.12;3.92;;;5.50;99.90;;;;;;468401;253;28026;-75
2021/04/09 06:43:05;;;;;;;7.30;4.25;;;5.60;99.90;;;;;;468361;253;28102;-75
2021/04/09 06:45:06;;;;;;;5.03;3.60;;;5.70;99.90;;;;;;468449;253;27541;-74
2021/04/09 06:47:08;;;;;;;9.68;3.95;;;5.80;99.90;;;;;;468419;253;27523;-75
2021/04/09 06:49:09;;;;;;;5.60;3.50;;;5.90;99.90;;;;;;468345;253;27639;-75
2021/04/09 06:51:11;;;;;;;6.50;3.70;;;6.00;99.90;;;;;;468406;253;27538;-75
2021/04/09 06:53:12;;;;;;;8.75;3.90;;;6.10;99.90;;;;;;468411;253;28309;-74
2021/04/09 06:55:13;;;;;;;5.53;3.65;;;6.10;99.90;;;;;;468362;253;27938;-74
2021/04/09 06:57:14;;;;;;;6.10;4.05;;;6.10;99.90;;;;;;468430;253;28170;-75
2021/04/09 06:59:16;;;;;;;7.10;3.42;;;6.20;99.90;;;;;;468421;253;27430;-74
2021/04/09 07:01:17;;;;;;;9.50;4.17;;;6.30;99.90;;;;;;468307;253;27554;-75
2021/04/09 07:03:18;;;;;;;8.73;3.75;;;6.40;99.90;;;;;;468412;253;28923;-75
2021/04/09 07:05:19;;;;;;;6.20;3.10;;;6.40;99.90;;;;;;468428;253;27508;-74
2021/04/09 07:07:20;;;;;;;7.50;5.40;;;6.40;99.90;;;;;;468401;253;27572;-75
2021/04/09 07:09:22;;;;;;;15.73;10.60;;;6.60;99.90;;;;;;468442;253;28025;-74
2021/04/09 07:11:23;;;;;;;21.73;11.77;;;6.60;99.90;;;;;;468447;253;29442;-75
2021/04/09 07:13:24;;;;;;;11.63;7.30;;;6.60;99.90;;;;;;468286;254;29482;-75
2021/04/09 07:15:25;;;;;;;10.33;6.20;;;6.60;99.90;;;;;;468491;254;27570;-75
2021/04/09 07:17:27;;;;;;;6.47;4.53;;;6.60;99.90;;;;;;475368;249;28469;-75
2021/04/09 07:19:28;;;;;;;6.83;4.50;;;6.60;99.90;;;;;;469874;249;28035;-75
2021/04/09 07:21:29;;;;;;;10.53;5.60;;;6.70;99.90;;;;;;468530;253;28048;-74
2021/04/09 07:23:30;;;;;;;44.83;22.13;;;6.70;99.90;;;;;;468540;253;28129;-75
2021/04/09 07:25:32;;;;;;;6.20;4.33;;;6.70;99.90;;;;;;468424;253;27807;-75
2021/04/09 07:27:33;;;;;;;30.53;17.40;;;6.70;99.90;;;;;;468352;253;28980;-75
2021/04/09 07:29:34;;;;;;;7.80;4.27;;;6.70;99.90;;;;;;468426;253;28071;-73
2021/04/09 07:31:36;;;;;;;12.80;7.70;;;6.70;99.90;;;;;;473106;249;27594;-75
2021/04/09 07:33:37;;;;;;;7.33;4.73;;;6.70;99.90;;;;;;485948;244;28115;-76
2021/04/09 07:35:38;;;;;;;13.88;8.07;;;6.80;99.90;;;;;;486024;244;28215;-75
2021/04/09 07:37:39;;;;;;;8.00;4.50;;;6.80;99.90;;;;;;477505;244;29116;-76
2021/04/09 07:39:40;;;;;;;20.83;12.90;;;6.90;99.90;;;;;;471755;244;28092;-75
2021/04/09 07:41:42;;;;;;;10.17;6.10;;;6.90;99.90;;;;;;474050;244;28800;-75
2021/04/09 07:43:43;;;;;;;15.37;9.47;;;7.00;99.90;;;;;;476368;249;27584;-76
2021/04/09 07:45:44;;;;;;;9.80;7.33;;;7.00;99.90;;;;;;472384;244;27975;-77
2021/04/09 07:47:45;;;;;;;9.20;6.57;;;7.10;99.90;;;;;;473971;249;28114;-75
2021/04/09 07:49:47;;;;;;;7.90;4.87;;;7.10;99.90;;;;;;473596;249;27891;-76
2021/04/09 07:51:48;;;;;;;12.13;5.70;;;7.10;99.90;;;;;;468421;254;27999;-75
2021/04/09 07:53:49;;;;;;;7.10;4.53;;;7.20;99.90;;;;;;468412;254;28097;-76
2021/04/09 07:55:50;;;;;;;12.73;9.43;;;7.20;99.90;;;;;;468353;254;28548;-74
2021/04/09 07:57:52;;;;;;;7.60;5.10;;;7.30;99.90;;;;;;468452;254;28620;-75
2021/04/09 07:59:53;;;;;;;4.97;3.97;;;7.40;99.90;;;;;;468430;254;28450;-75
2021/04/09 08:01:54;;;;;;;8.90;5.47;;;7.50;99.90;;;;;;468389;254;27857;-75
2021/04/09 08:03:56;;;;;;;5.57;4.07;;;7.50;99.90;;;;;;468399;254;27788;-76
2021/04/09 08:05:57;;;;;;;6.97;3.93;;;7.50;99.90;;;;;;468436;254;27498;-75
2021/04/09 08:07:58;;;;;;;6.80;4.27;;;7.60;99.90;;;;;;468384;254;28081;-75
2021/04/09 08:09:59;;;;;;;8.27;4.00;;;7.70;99.90;;;;;;468431;254;28157;-76
2021/04/09 08:12:00;;;;;;;4.60;3.60;;;7.70;99.90;;;;;;468456;254;27991;-76
2021/04/09 08:14:02;;;;;;;11.33;6.07;;;7.70;99.90;;;;;;468312;254;28313;-75
2021/04/09 08:16:03;;;;;;;7.53;4.40;;;7.80;99.90;;;;;;468419;254;28036;-76
2021/04/09 08:18:05;;;;;;;6.30;3.90;;;7.80;99.90;;;;;;468436;254;27850;-76
2021/04/09 08:20:05;;;;;;;9.90;4.60;;;7.80;99.90;;;;;;468366;254;28369;-75
2021/04/09 08:22:07;;;;;;;10.03;4.27;;;7.80;99.90;;;;;;468468;254;28469;-76
2021/04/09 08:24:08;;;;;;;10.00;5.67;;;7.80;99.90;;;;;;468453;254;28115;-75
2021/04/09 08:26:09;;;;;;;6.27;4.37;;;7.80;99.90;;;;;;468434;254;28400;-76
2021/04/09 08:28:10;;;;;;;8.73;7.83;;;7.80;99.90;;;;;;468485;254;28272;-77
2021/04/09 08:30:12;;;;;;;10.20;5.00;;;7.90;99.90;;;;;;468292;254;27763;-76
2021/04/09 08:32:13;;;;;;;6.23;4.30;;;8.00;99.90;;;;;;468212;249;28098;-76
2021/04/09 08:34:16;;;;;;;9.80;4.87;;;8.10;99.90;;;;;;468402;254;27997;-76
2021/04/09 08:36:15;;;;;;;5.77;4.07;;;8.20;99.90;;;;;;468315;254;27963;-76
2021/04/09 08:38:17;;;;;;;9.10;4.77;;;8.30;99.90;;;;;;468420;254;28082;-76
2021/04/09 08:40:18;;;;;;;5.67;3.80;;;8.40;99.90;;;;;;468433;254;28074;-76
2021/04/09 08:42:19;;;;;;;8.43;5.50;;;8.50;99.90;;;;;;468461;249;28306;-76
2021/04/09 08:44:20;;;;;;;6.20;4.10;;;8.60;99.90;;;;;;468419;254;28054;-76
2021/04/09 08:46:22;;;;;;;6.17;5.10;;;8.70;99.90;;;;;;468531;254;28598;-76
2021/04/09 08:48:23;;;;;;;8.17;4.30;;;8.70;99.90;;;;;;468627;254;28253;-76
2021/04/09 08:50:24;;;;;;;5.67;4.30;;;8.80;99.90;;;;;;468420;254;28042;-76
2021/04/09 08:52:25;;;;;;;6.13;4.33;;;8.90;99.90;;;;;;468440;254;27938;-76
2021/04/09 08:54:30;;;;;;;8.83;7.37;;;8.80;99.90;;;;;;468400;254;27704;-76
2021/04/09 08:56:31;;;;;;;6.37;4.47;;;8.90;99.90;;;;;;468320;254;28074;-76
2021/04/09 08:58:32;;;;;;;6.10;4.73;;;8.90;99.90;;;;;;468351;254;28065;-76
2021/04/09 09:00:34;;;;;;;10.23;4.80;;;8.90;99.90;;;;;;468395;254;27868;-76
2021/04/09 09:02:35;;;;;;;11.37;4.30;;;8.90;99.90;;;;;;468371;254;28025;-76
2021/04/09 09:04:36;;;;;;;6.37;4.53;;;8.80;99.90;;;;;;468380;254;28526;-76
2021/04/09 09:06:37;;;;;;;6.83;3.93;;;8.90;99.90;;;;;;468570;254;28151;-76
2021/04/09 09:08:39;;;;;;;6.40;3.67;;;9.00;99.90;;;;;;468647;254;28550;-77
2021/04/09 09:10:40;;;;;;;9.53;5.10;;;9.00;99.90;;;;;;468674;254;29117;-77
2021/04/09 09:12:41;;;;;;;9.63;5.30;;;9.00;99.90;;;;;;468538;254;28540;-76
2021/04/09 09:14:42;;;;;;;8.83;3.90;;;9.00;99.90;;;;;;468520;254;28264;-77
2021/04/09 09:16:44;;;;;;;9.80;3.90;;;9.10;99.90;;;;;;468533;254;28025;-77
2021/04/09 09:18:45;;;;;;;8.87;4.00;;;9.10;99.90;;;;;;468515;254;27696;-78
2021/04/09 09:20:46;;;;;;;8.40;3.80;;;9.10;99.90;;;;;;468607;254;28046;-77
2021/04/09 09:22:47;;;;;;;9.13;4.00;;;9.10;99.90;;;;;;468586;254;27936;-77
2021/04/09 09:24:49;;;;;;;7.13;4.20;;;9.10;99.90;;;;;;468508;254;28039;-77
2021/04/09 09:26:50;;;;;;;12.40;5.50;;;9.00;99.90;;;;;;468519;254;27947;-78
2021/04/09 09:28:51;;;;;;;9.07;4.30;;;9.10;99.90;;;;;;468537;254;27981;-77
2021/04/09 09:30:55;;;;;;;12.40;3.53;;;9.10;99.90;;;;;;468502;254;27947;-77
2021/04/09 09:32:57;;;;;;;11.10;4.70;;;9.10;99.90;;;;;;468556;254;27843;-76
2021/04/09 09:34:58;;;;;;;8.27;4.23;;;9.10;99.90;;;;;;468495;254;28371;-77
2021/04/09 09:36:59;;;;;;;10.57;4.70;;;9.20;99.90;;;;;;468490;254;28070;-76
2021/04/09 09:39:00;;;;;;;6.23;4.10;;;9.10;99.90;;;;;;468530;254;28076;-76
2021/04/09 09:41:02;;;;;;;6.10;4.17;;;9.10;99.90;;;;;;468524;254;28094;-76
2021/04/09 09:43:03;;;;;;;10.20;4.17;;;9.20;99.90;;;;;;468444;254;28476;-77
2021/04/09 09:45:04;;;;;;;9.30;4.57;;;9.30;99.90;;;;;;468204;254;28333;-77
2021/04/09 09:47:06;;;;;;;8.87;5.77;;;9.30;99.90;;;;;;468554;254;28339;-77
2021/04/09 09:49:07;;;;;;;6.27;4.63;;;9.40;99.90;;;;;;468452;254;28437;-77
2021/04/09 09:51:08;;;;;;;6.70;4.73;;;9.40;99.90;;;;;;468535;254;29051;-76
2021/04/09 09:53:09;;;;;;;9.43;5.30;;;9.30;99.90;;;;;;468521;254;27796;-76
2021/04/09 09:55:11;;;;;;;9.00;4.40;;;9.30;99.90;;;;;;468480;254;27933;-77
2021/04/09 09:57:12;;;;;;;10.03;4.10;;;9.50;99.90;;;;;;468449;254;27846;-76
2021/04/09 09:59:13;;;;;;;10.30;4.47;;;9.40;99.90;;;;;;468503;254;27951;-77
2021/04/09 10:01:14;;;;;;;5.87;4.07;;;9.50;99.90;;;;;;468337;254;28048;-76
2021/04/09 10:03:15;;;;;;;6.57;4.30;;;9.60;99.90;;;;;;468400;254;27789;-76
2021/04/09 10:05:17;;;;;;;7.17;4.07;;;9.50;99.90;;;;;;468297;254;28034;-77
2021/04/09 10:07:18;;;;;;;4.40;3.70;;;9.50;99.90;;;;;;468479;244;27548;-77
2021/04/09 10:09:19;;;;;;;6.03;4.17;;;9.60;99.90;;;;;;476269;244;28139;-76
2021/04/09 10:11:20;;;;;;;5.80;4.00;;;9.60;99.90;;;;;;476914;244;27982;-78
2021/04/09 10:13:22;;;;;;;6.40;4.33;;;9.70;99.90;;;;;;468627;254;28041;-75
2021/04/09 10:15:23;;;;;;;5.97;3.67;;;9.90;99.90;;;;;;468503;254;28051;-77
2021/04/09 10:17:24;;;;;;;5.27;3.70;;;10.00;99.90;;;;;;468413;249;28490;-76
2021/04/09 10:19:25;;;;;;;7.13;4.03;;;10.20;99.90;;;;;;476246;244;28089;-76
2021/04/09 10:21:27;;;;;;;5.80;3.50;;;10.30;99.90;;;;;;474932;244;28438;-76
2021/04/09 10:23:28;;;;;;;8.07;3.93;;;10.20;99.90;;;;;;468481;244;28325;-77
2021/04/09 10:25:29;;;;;;;6.60;4.20;;;10.20;99.90;;;;;;478294;244;28006;-78
2021/04/09 10:27:30;;;;;;;11.03;3.83;;;10.20;99.90;;;;;;476636;244;27877;-76
2021/04/09 10:29:33;;;;;;;9.70;4.17;;;10.30;99.90;;;;;;470005;249;28185;-77
2021/04/09 10:31:33;;;;;;;5.63;3.50;;;10.40;99.90;;;;;;468427;254;27828;-77
2021/04/09 10:33:34;;;;;;;4.90;3.60;;;10.50;99.90;;;;;;468496;254;28026;-77
2021/04/09 10:35:35;;;;;;;6.17;3.87;;;10.40;99.90;;;;;;471989;244;28108;-78
2021/04/09 10:37:38;;;;;;;3.90;3.10;;;10.50;99.90;;;;;;474971;244;28488;-77